createdAt,value
2018-02-09T00:00:27.652Z,90.55
2018-02-09T00:01:27.501Z,90.55
2018-02-09T00:03:20.253Z,90.45
2018-02-09T00:04:20.139Z,91.30
2018-02-09T00:06:13.017Z,91.58
2018-02-09T00:07:12.920Z,90.73
2018-02-09T00:09:05.674Z,90.92
2018-02-09T00:10:05.552Z,90.17
2018-02-09T00:11:58.304Z,91.02
2018-02-09T00:12:58.187Z,90.36
2018-02-09T00:14:50.938Z,90.26
2018-02-09T00:15:50.836Z,90.73
2018-02-09T00:17:43.618Z,89.70
2018-02-09T00:18:43.479Z,89.79
2018-02-09T00:20:36.280Z,90.92
2018-02-09T00:21:36.129Z,90.64
2018-02-09T00:23:28.998Z,90.55
2018-02-09T00:24:28.882Z,90.73
2018-02-09T00:26:21.625Z,91.20
2018-02-09T00:27:21.517Z,91.20
2018-02-09T00:29:14.296Z,91.49
2018-02-09T00:30:14.174Z,91.39
2018-02-09T00:32:06.928Z,91.49
2018-02-09T00:33:06.815Z,91.39
2018-02-09T00:34:59.602Z,91.11
2018-02-09T00:35:59.478Z,91.67
2018-02-09T00:37:52.214Z,90.73
2018-02-09T00:38:52.118Z,90.55
2018-02-09T00:40:44.890Z,91.30
2018-02-09T00:41:44.762Z,91.39
2018-02-09T00:43:37.540Z,91.30
2018-02-09T00:44:37.408Z,91.67
2018-02-09T00:46:30.176Z,91.20
2018-02-09T00:47:30.052Z,91.67
2018-02-09T00:49:22.950Z,91.02
2018-02-09T00:50:22.799Z,91.49
2018-02-09T00:52:15.574Z,91.20
2018-02-09T00:53:15.456Z,91.20
2018-02-09T00:55:08.710Z,91.67
2018-02-09T00:56:08.611Z,91.58
2018-02-09T00:58:01.892Z,91.30
2018-02-09T00:59:01.767Z,91.02
2018-02-09T01:00:54.551Z,90.83
2018-02-09T01:01:54.430Z,90.64
2018-02-09T01:03:47.185Z,90.55
2018-02-09T01:04:47.059Z,90.55
2018-02-09T01:06:39.989Z,90.36
2018-02-09T01:07:39.810Z,90.55
2018-02-09T01:09:32.972Z,90.92
2018-02-09T01:10:32.590Z,90.26
2018-02-09T01:12:25.420Z,90.36
2018-02-09T01:13:25.321Z,89.79
2018-02-09T01:15:18.181Z,90.36
2018-02-09T01:16:18.052Z,89.70
2018-02-09T01:18:10.830Z,89.89
2018-02-09T01:19:10.697Z,89.98
2018-02-09T01:21:04.012Z,90.36
2018-02-09T01:22:03.870Z,91.02
2018-02-09T01:23:56.725Z,91.11
2018-02-09T01:24:56.613Z,90.64
2018-02-09T01:26:49.382Z,90.64
2018-02-09T01:27:49.259Z,90.55
2018-02-09T01:29:42.026Z,90.92
2018-02-09T01:30:41.912Z,90.92
2018-02-09T01:32:34.687Z,90.83
2018-02-09T01:33:34.554Z,91.58
2018-02-09T01:35:27.408Z,91.02
2018-02-09T01:36:27.310Z,91.02
2018-02-09T01:38:20.092Z,91.39
2018-02-09T01:39:19.957Z,91.20
2018-02-09T01:41:12.719Z,91.67
2018-02-09T01:42:12.630Z,91.20
2018-02-09T01:44:05.475Z,91.58
2018-02-09T01:45:05.344Z,91.58
2018-02-09T01:46:58.108Z,91.67
2018-02-09T01:47:58.007Z,91.49
2018-02-09T01:49:50.761Z,91.30
2018-02-09T01:50:50.652Z,91.77
2018-02-09T01:52:43.497Z,91.49
2018-02-09T01:53:43.400Z,91.58
2018-02-09T01:55:36.690Z,91.02
2018-02-09T01:56:36.582Z,90.83
2018-02-09T01:58:29.876Z,90.73
2018-02-09T01:59:29.304Z,90.64
2018-02-09T02:01:22.088Z,91.11
2018-02-09T02:02:21.959Z,91.86
2018-02-09T02:04:14.806Z,91.58
2018-02-09T02:05:14.712Z,92.33
2018-02-09T02:07:07.569Z,91.96
2018-02-09T02:08:07.583Z,91.30
2018-02-09T02:10:00.201Z,91.39
2018-02-09T02:11:00.109Z,91.20
2018-02-09T02:12:53.247Z,90.64
2018-02-09T02:13:52.849Z,90.36
2018-02-09T02:15:45.707Z,90.64
2018-02-09T02:16:45.592Z,90.36
2018-02-09T02:18:38.388Z,90.08
2018-02-09T02:19:38.258Z,91.02
2018-02-09T02:21:31.119Z,90.17
2018-02-09T02:22:30.987Z,90.55
2018-02-09T02:24:23.761Z,91.58
2018-02-09T02:25:23.638Z,91.49
2018-02-09T02:27:16.494Z,90.64
2018-02-09T02:28:16.384Z,90.36
2018-02-09T02:30:09.252Z,89.89
2018-02-09T02:31:09.146Z,89.61
2018-02-09T02:33:01.930Z,89.61
2018-02-09T02:34:01.783Z,90.08
2018-02-09T02:35:54.655Z,90.64
2018-02-09T02:36:54.540Z,90.36
2018-02-09T02:38:47.290Z,89.98
2018-02-09T02:39:47.204Z,89.89
2018-02-09T02:41:40.052Z,89.79
2018-02-09T02:42:39.924Z,89.51
2018-02-09T02:44:32.788Z,89.51
2018-02-09T02:45:32.694Z,89.61
2018-02-09T02:47:26.063Z,89.98
2018-02-09T02:48:25.938Z,89.98
2018-02-09T02:50:18.796Z,89.98
2018-02-09T02:51:18.684Z,89.79
2018-02-09T02:53:11.566Z,89.98
2018-02-09T02:54:11.437Z,89.70
2018-02-09T02:56:04.297Z,90.36
2018-02-09T02:57:04.189Z,90.73
2018-02-09T02:58:57.062Z,90.45
2018-02-09T02:59:56.936Z,89.79
2018-02-09T03:01:49.799Z,90.17
2018-02-09T03:02:49.687Z,89.70
2018-02-09T03:04:42.480Z,89.23
2018-02-09T03:05:42.342Z,89.51
2018-02-09T03:07:35.134Z,89.79
2018-02-09T03:08:35.004Z,89.42
2018-02-09T03:10:27.795Z,89.42
2018-02-09T03:11:27.655Z,89.13
2018-02-09T03:13:20.444Z,89.32
2018-02-09T03:14:20.332Z,89.70
2018-02-09T03:16:13.058Z,89.42
2018-02-09T03:17:12.952Z,90.08
2018-02-09T03:19:05.700Z,89.89
2018-02-09T03:20:05.580Z,90.17
2018-02-09T03:21:58.545Z,89.28
2018-02-09T03:22:58.422Z,89.28
2018-02-09T03:24:51.188Z,89.18
2018-02-09T03:25:51.128Z,89.47
2018-02-09T03:27:44.110Z,89.70
2018-02-09T03:28:43.718Z,89.79
2018-02-09T03:30:36.480Z,89.61
2018-02-09T03:31:36.367Z,89.75
2018-02-09T03:33:29.140Z,89.56
2018-02-09T03:34:29.125Z,89.47
2018-02-09T03:36:21.766Z,89.47
2018-02-09T03:37:21.667Z,89.37
2018-02-09T03:39:14.445Z,89.65
2018-02-09T03:40:14.305Z,89.75
2018-02-09T03:42:07.074Z,89.75
2018-02-09T03:43:06.955Z,89.65
2018-02-09T03:44:59.743Z,90.59
2018-02-09T03:45:59.628Z,89.75
2018-02-09T03:47:52.610Z,89.65
2018-02-09T03:48:52.249Z,89.56
2018-02-09T03:50:45.139Z,89.56
2018-02-09T03:51:44.899Z,90.03
2018-02-09T03:53:37.658Z,89.09
2018-02-09T03:54:37.541Z,89.37
2018-02-09T03:56:30.313Z,89.65
2018-02-09T03:57:30.187Z,89.28
2018-02-09T03:59:22.958Z,89.28
2018-02-09T04:00:22.839Z,89.28
2018-02-09T04:02:15.645Z,89.18
2018-02-09T04:03:15.509Z,89.75
2018-02-09T04:05:08.286Z,89.94
2018-02-09T04:06:08.205Z,90.03
2018-02-09T04:08:01.696Z,90.12
2018-02-09T04:09:01.450Z,89.84
2018-02-09T04:10:54.151Z,90.12
2018-02-09T04:11:54.005Z,90.22
2018-02-09T04:13:46.741Z,90.12
2018-02-09T04:14:46.595Z,89.84
2018-02-09T04:16:40.054Z,89.84
2018-02-09T04:17:39.257Z,90.03
2018-02-09T04:19:32.001Z,89.09
2018-02-09T04:20:31.879Z,89.00
2018-02-09T04:22:24.651Z,89.09
2018-02-09T04:23:24.533Z,89.18
2018-02-09T04:25:17.300Z,89.47
2018-02-09T04:26:17.203Z,89.09
2018-02-09T04:28:09.936Z,89.37
2018-02-09T04:29:09.815Z,89.37
2018-02-09T04:31:02.643Z,89.47
2018-02-09T04:32:02.679Z,89.28
2018-02-09T04:33:56.866Z,89.18
2018-02-09T04:34:56.750Z,88.62
2018-02-09T04:36:49.515Z,88.71
2018-02-09T04:37:49.410Z,89.18
2018-02-09T04:39:42.156Z,89.84
2018-02-09T04:40:42.063Z,89.75
2018-02-09T04:42:34.842Z,89.09
2018-02-09T04:43:34.704Z,89.09
2018-02-09T04:45:27.455Z,89.75
2018-02-09T04:46:27.936Z,89.84
2018-02-09T04:48:20.112Z,90.03
2018-02-09T04:49:19.990Z,89.37
2018-02-09T04:51:12.745Z,89.84
2018-02-09T04:52:12.645Z,89.84
2018-02-09T04:54:05.475Z,89.84
2018-02-09T04:55:05.280Z,89.65
2018-02-09T04:56:58.052Z,89.94
2018-02-09T04:57:57.938Z,89.94
2018-02-09T04:59:50.720Z,89.56
2018-02-09T05:00:50.583Z,89.94
2018-02-09T05:02:43.336Z,89.37
2018-02-09T05:03:43.239Z,89.37
2018-02-09T05:05:36.044Z,89.09
2018-02-09T05:06:35.876Z,89.47
2018-02-09T05:08:28.740Z,89.28
2018-02-09T05:09:28.639Z,88.90
2018-02-09T05:11:21.504Z,89.37
2018-02-09T05:12:21.415Z,89.84
2018-02-09T05:14:14.133Z,90.22
2018-02-09T05:15:14.045Z,89.56
2018-02-09T05:17:08.484Z,89.28
2018-02-09T05:18:08.110Z,89.09
2018-02-09T05:20:00.958Z,89.47
2018-02-09T05:21:00.866Z,89.47
2018-02-09T05:22:53.628Z,89.47
2018-02-09T05:23:53.526Z,89.28
2018-02-09T05:25:46.252Z,89.65
2018-02-09T05:26:46.138Z,89.47
2018-02-09T05:28:38.929Z,89.28
2018-02-09T05:29:38.784Z,89.09
2018-02-09T05:31:31.550Z,89.65
2018-02-09T05:32:31.439Z,89.47
2018-02-09T05:34:24.222Z,89.37
2018-02-09T05:35:24.088Z,89.00
2018-02-09T05:37:16.835Z,89.37
2018-02-09T05:38:16.743Z,89.75
2018-02-09T05:40:09.519Z,90.03
2018-02-09T05:41:09.379Z,89.37
2018-02-09T05:43:02.131Z,89.75
2018-02-09T05:44:02.023Z,90.22
2018-02-09T05:45:54.803Z,89.65
2018-02-09T05:46:54.708Z,90.12
2018-02-09T05:48:47.436Z,89.84
2018-02-09T05:49:47.314Z,89.75
2018-02-09T05:51:40.103Z,90.03
2018-02-09T05:52:39.962Z,90.03
2018-02-09T05:54:32.721Z,89.47
2018-02-09T05:55:32.614Z,89.28
2018-02-09T05:57:25.387Z,90.12
2018-02-09T05:58:25.257Z,89.47
2018-02-09T06:00:18.015Z,89.28
2018-02-09T06:01:17.909Z,89.09
2018-02-09T06:03:10.682Z,89.37
2018-02-09T06:04:10.559Z,89.47
2018-02-09T06:06:03.305Z,89.00
2018-02-09T06:07:03.230Z,89.09
2018-02-09T06:08:55.991Z,89.18
2018-02-09T06:09:55.852Z,89.37
2018-02-09T06:11:48.740Z,89.09
2018-02-09T06:12:48.605Z,89.28
2018-02-09T06:14:41.471Z,88.90
2018-02-09T06:15:41.356Z,89.28
2018-02-09T06:17:34.225Z,89.00
2018-02-09T06:18:34.093Z,89.47
2018-02-09T06:20:26.974Z,89.09
2018-02-09T06:21:26.867Z,89.47
2018-02-09T06:23:19.704Z,88.90
2018-02-09T06:24:19.605Z,88.90
2018-02-09T06:26:12.474Z,89.09
2018-02-09T06:27:12.339Z,89.09
2018-02-09T06:29:05.203Z,88.62
2018-02-09T06:30:05.110Z,88.62
2018-02-09T06:31:57.986Z,89.09
2018-02-09T06:32:57.842Z,89.47
2018-02-09T06:34:50.708Z,89.65
2018-02-09T06:35:50.597Z,89.84
2018-02-09T06:37:43.466Z,89.56
2018-02-09T06:38:43.337Z,89.65
2018-02-09T06:40:36.213Z,89.09
2018-02-09T06:41:36.102Z,89.00
2018-02-09T06:43:28.973Z,89.47
2018-02-09T06:44:28.842Z,89.37
2018-02-09T06:46:21.698Z,89.84
2018-02-09T06:47:21.642Z,89.75
2018-02-09T06:49:14.466Z,89.84
2018-02-09T06:50:14.344Z,89.47
2018-02-09T06:52:07.226Z,89.56
2018-02-09T06:53:07.097Z,89.84
2018-02-09T06:54:59.979Z,89.18
2018-02-09T06:55:59.835Z,89.47
2018-02-09T06:57:52.699Z,89.65
2018-02-09T06:58:52.590Z,90.31
2018-02-09T07:00:45.469Z,90.69
2018-02-09T07:01:45.331Z,90.88
2018-02-09T07:03:38.205Z,91.53
2018-02-09T07:04:38.109Z,91.44
2018-02-09T07:06:30.960Z,90.78
2018-02-09T07:07:30.837Z,90.78
2018-02-09T07:09:24.220Z,90.69
2018-02-09T07:10:24.312Z,90.31
2018-02-09T07:12:16.970Z,89.84
2018-02-09T07:13:16.854Z,89.75
2018-02-09T07:15:09.723Z,90.45
2018-02-09T07:16:09.599Z,90.03
2018-02-09T07:18:02.473Z,90.03
2018-02-09T07:19:02.347Z,89.51
2018-02-09T07:20:55.210Z,90.55
2018-02-09T07:21:55.100Z,90.83
2018-02-09T07:23:47.976Z,90.92
2018-02-09T07:24:47.845Z,91.49
2018-02-09T07:26:40.734Z,91.11
2018-02-09T07:27:40.634Z,91.39
2018-02-09T07:29:33.589Z,91.67
2018-02-09T07:30:33.446Z,91.20
2018-02-09T07:32:26.305Z,91.58
2018-02-09T07:33:26.196Z,92.14
2018-02-09T07:35:19.084Z,92.71
2018-02-09T07:36:18.946Z,92.80
2018-02-09T07:38:11.807Z,93.09
2018-02-09T07:39:11.700Z,92.05
2018-02-09T07:41:04.571Z,91.67
2018-02-09T07:42:04.458Z,91.11
2018-02-09T07:43:57.307Z,91.20
2018-02-09T07:44:57.195Z,91.20
2018-02-09T07:46:50.076Z,91.49
2018-02-09T07:47:49.952Z,91.86
2018-02-09T07:49:44.237Z,92.33
2018-02-09T07:50:44.130Z,91.20
2018-02-09T07:52:37.015Z,91.49
2018-02-09T07:53:36.886Z,90.83
2018-02-09T07:55:29.754Z,91.30
2018-02-09T07:56:29.644Z,91.53
2018-02-09T07:58:22.520Z,91.72
2018-02-09T07:59:22.388Z,91.53
2018-02-09T08:01:15.773Z,91.72
2018-02-09T08:02:15.650Z,92.19
2018-02-09T08:04:09.025Z,92.47
2018-02-09T08:05:08.905Z,92.38
2018-02-09T08:07:01.762Z,93.51
2018-02-09T08:08:01.675Z,93.80
2018-02-09T08:09:55.048Z,92.57
2018-02-09T08:10:54.916Z,92.66
2018-02-09T08:12:47.769Z,92.29
2018-02-09T08:13:47.663Z,92.57
2018-02-09T08:15:40.562Z,92.47
2018-02-09T08:16:40.422Z,92.57
2018-02-09T08:18:33.290Z,91.91
2018-02-09T08:19:33.173Z,92.00
2018-02-09T08:21:26.030Z,92.47
2018-02-09T08:22:25.928Z,92.43
2018-02-09T08:24:18.856Z,92.14
2018-02-09T08:25:18.661Z,92.33
2018-02-09T08:27:11.519Z,92.52
2018-02-09T08:28:11.408Z,92.43
2018-02-09T08:30:04.460Z,92.43
2018-02-09T08:31:04.261Z,92.33
2018-02-09T08:32:57.124Z,92.24
2018-02-09T08:33:57.035Z,91.86
2018-02-09T08:35:49.886Z,91.77
2018-02-09T08:36:49.776Z,91.30
2018-02-09T08:38:42.638Z,90.55
2018-02-09T08:39:42.521Z,90.92
2018-02-09T08:41:35.410Z,90.64
2018-02-09T08:42:35.268Z,91.02
2018-02-09T08:44:28.119Z,91.02
2018-02-09T08:45:28.017Z,90.83
2018-02-09T08:47:20.892Z,90.55
2018-02-09T08:48:20.759Z,90.26
2018-02-09T08:50:13.633Z,90.31
2018-02-09T08:51:13.508Z,90.21
2018-02-09T08:53:06.302Z,90.21
2018-02-09T08:54:06.163Z,90.40
2018-02-09T08:55:58.947Z,90.31
2018-02-09T08:56:58.851Z,90.78
2018-02-09T08:58:51.605Z,90.68
2018-02-09T08:59:51.474Z,90.31
2018-02-09T09:01:44.225Z,90.02
2018-02-09T09:02:44.115Z,89.64
2018-02-09T09:04:37.406Z,90.21
2018-02-09T09:05:37.316Z,89.45
2018-02-09T09:07:30.023Z,89.64
2018-02-09T09:08:29.963Z,89.50
2018-02-09T09:10:22.689Z,88.46
2018-02-09T09:11:22.607Z,88.75
2018-02-09T09:13:15.352Z,88.75
2018-02-09T09:14:15.239Z,88.37
2018-02-09T09:16:08.001Z,86.29
2018-02-09T09:17:07.854Z,85.72
2018-02-09T09:19:00.641Z,84.12
2018-02-09T09:20:00.526Z,84.16
2018-02-09T09:21:53.297Z,83.50
2018-02-09T09:22:53.144Z,83.50
2018-02-09T09:24:45.908Z,83.22
2018-02-09T09:25:45.794Z,83.22
2018-02-09T09:27:38.569Z,83.69
2018-02-09T09:28:38.452Z,83.03
2018-02-09T09:30:31.351Z,83.03
2018-02-09T09:31:31.198Z,83.50
2018-02-09T09:33:23.981Z,82.93
2018-02-09T09:34:23.837Z,82.75
2018-02-09T09:36:16.626Z,83.22
2018-02-09T09:37:16.494Z,83.12
2018-02-09T09:39:09.261Z,83.03
2018-02-09T09:40:09.142Z,82.56
2018-02-09T09:42:01.985Z,83.40
2018-02-09T09:43:01.902Z,82.93
2018-02-09T09:44:54.765Z,82.09
2018-02-09T09:45:54.640Z,82.37
2018-02-09T09:47:47.496Z,82.37
2018-02-09T09:48:47.387Z,82.56
2018-02-09T09:50:40.264Z,82.75
2018-02-09T09:51:40.137Z,81.90
2018-02-09T09:53:32.982Z,81.42
2018-02-09T09:54:32.881Z,82.03
2018-02-09T09:56:25.763Z,81.80
2018-02-09T09:57:25.627Z,81.84
2018-02-09T09:59:18.481Z,80.90
2018-02-09T10:00:18.376Z,80.52
2018-02-09T10:02:11.253Z,81.09
2018-02-09T10:03:11.136Z,80.90
2018-02-09T10:05:04.018Z,80.43
2018-02-09T10:06:03.898Z,79.67
2018-02-09T10:07:57.055Z,80.24
2018-02-09T10:08:56.663Z,80.80
2018-02-09T10:10:49.494Z,79.95
2018-02-09T10:11:49.380Z,79.86
2018-02-09T10:13:42.463Z,78.72
2018-02-09T10:14:42.334Z,78.34
2018-02-09T10:16:35.225Z,77.69
2018-02-09T10:17:35.084Z,78.44
2018-02-09T10:19:27.957Z,77.59
2018-02-09T10:20:27.848Z,77.59
2018-02-09T10:22:20.698Z,78.25
2018-02-09T10:23:20.578Z,78.16
2018-02-09T10:25:13.453Z,77.59
2018-02-09T10:26:13.372Z,77.02
2018-02-09T10:28:06.185Z,77.31
2018-02-09T10:29:06.077Z,76.74
2018-02-09T10:30:58.960Z,76.07
2018-02-09T10:31:58.827Z,75.26
2018-02-09T10:33:51.703Z,75.42
2018-02-09T10:34:51.576Z,75.36
2018-02-09T10:36:44.458Z,75.93
2018-02-09T10:37:44.341Z,75.93
2018-02-09T10:39:37.406Z,76.21
2018-02-09T10:40:37.284Z,74.88
2018-02-09T10:42:30.160Z,74.79
2018-02-09T10:43:30.040Z,74.98
2018-02-09T10:45:22.899Z,74.51
2018-02-09T10:46:22.783Z,74.32
2018-02-09T10:48:15.650Z,74.69
2018-02-09T10:49:15.527Z,74.51
2018-02-09T10:51:08.816Z,74.32
2018-02-09T10:52:08.702Z,73.85
2018-02-09T10:54:01.550Z,74.07
2018-02-09T10:55:01.450Z,73.88
2018-02-09T10:56:54.710Z,72.43
2018-02-09T10:57:54.665Z,73.03
2018-02-09T10:59:47.976Z,72.71
2018-02-09T11:00:47.864Z,72.80
2018-02-09T11:02:40.716Z,73.09
2018-02-09T11:03:40.629Z,72.90
2018-02-09T11:05:33.489Z,73.32
2018-02-09T11:06:33.383Z,72.80
2018-02-09T11:08:26.214Z,72.62
2018-02-09T11:09:26.149Z,72.75
2018-02-09T11:11:19.001Z,72.71
2018-02-09T11:12:18.883Z,72.80
2018-02-09T11:14:11.726Z,73.09
2018-02-09T11:15:11.610Z,73.66
2018-02-09T11:17:04.493Z,73.28
2018-02-09T11:18:04.360Z,73.75
2018-02-09T11:19:57.229Z,74.04
2018-02-09T11:20:57.162Z,74.07
2018-02-09T11:22:49.981Z,73.22
2018-02-09T11:23:49.857Z,73.41
2018-02-09T11:25:42.730Z,73.13
2018-02-09T11:26:42.614Z,72.85
2018-02-09T11:28:35.778Z,72.66
2018-02-09T11:29:35.366Z,72.85
2018-02-09T11:31:28.226Z,73.32
2018-02-09T11:32:28.104Z,73.22
2018-02-09T11:34:20.970Z,72.37
2018-02-09T11:35:20.852Z,71.33
2018-02-09T11:37:13.723Z,71.90
2018-02-09T11:38:13.636Z,72.09
2018-02-09T11:40:06.520Z,71.52
2018-02-09T11:41:06.357Z,71.42
2018-02-09T11:42:59.413Z,71.42
2018-02-09T11:43:59.315Z,72.03
2018-02-09T11:45:52.460Z,70.79
2018-02-09T11:46:52.111Z,70.10
2018-02-09T11:48:44.908Z,71.14
2018-02-09T11:49:44.820Z,70.95
2018-02-09T11:51:37.682Z,70.86
2018-02-09T11:52:37.577Z,70.20
2018-02-09T11:54:30.421Z,71.04
2018-02-09T11:55:30.311Z,70.95
2018-02-09T11:57:23.176Z,70.29
2018-02-09T11:58:23.064Z,70.39
2018-02-09T12:00:15.912Z,70.10
2018-02-09T12:01:15.815Z,70.01
2018-02-09T12:03:08.685Z,69.91
2018-02-09T12:04:08.562Z,69.82
2018-02-09T12:06:01.444Z,69.15
2018-02-09T12:07:01.348Z,70.20
2018-02-09T12:08:54.280Z,69.82
2018-02-09T12:09:54.161Z,70.14
2018-02-09T12:11:47.157Z,69.34
2018-02-09T12:12:47.017Z,68.96
2018-02-09T12:14:39.886Z,68.87
2018-02-09T12:15:39.766Z,69.06
2018-02-09T12:17:32.622Z,69.00
2018-02-09T12:18:32.531Z,69.47
2018-02-09T12:20:25.389Z,68.90
2018-02-09T12:21:25.267Z,69.00
2018-02-09T12:23:18.112Z,68.33
2018-02-09T12:24:18.021Z,68.62
2018-02-09T12:26:10.793Z,68.49
2018-02-09T12:27:10.694Z,68.81
2018-02-09T12:29:03.431Z,68.62
2018-02-09T12:30:03.319Z,68.81
2018-02-09T12:31:56.087Z,68.81
2018-02-09T12:32:55.955Z,68.43
2018-02-09T12:34:48.723Z,68.52
2018-02-09T12:35:48.600Z,68.33
2018-02-09T12:37:41.459Z,68.62
2018-02-09T12:38:41.360Z,68.43
2018-02-09T12:40:34.107Z,67.86
2018-02-09T12:41:33.999Z,67.96
2018-02-09T12:43:26.868Z,67.93
2018-02-09T12:44:26.755Z,68.77
2018-02-09T12:46:19.510Z,68.96
2018-02-09T12:47:19.393Z,69.25
2018-02-09T12:49:12.170Z,69.72
2018-02-09T12:50:12.060Z,70.20
2018-02-09T12:52:04.806Z,70.01
2018-02-09T12:53:04.687Z,69.91
2018-02-09T12:54:57.447Z,69.34
2018-02-09T12:55:57.337Z,69.72
2018-02-09T12:57:50.083Z,69.72
2018-02-09T12:58:49.993Z,69.91
2018-02-09T13:00:42.845Z,69.72
2018-02-09T13:01:42.727Z,70.20
2018-02-09T13:03:35.597Z,70.20
2018-02-09T13:04:35.486Z,70.29
2018-02-09T13:06:28.282Z,70.48
2018-02-09T13:07:28.148Z,70.95
2018-02-09T13:09:21.919Z,71.04
2018-02-09T13:10:21.803Z,71.95
2018-02-09T13:12:14.667Z,71.90
2018-02-09T13:13:14.561Z,72.24
2018-02-09T13:15:07.339Z,71.99
2018-02-09T13:16:07.209Z,71.86
2018-02-09T13:17:59.954Z,71.80
2018-02-09T13:18:59.872Z,71.90
2018-02-09T13:20:52.612Z,72.09
2018-02-09T13:21:52.504Z,72.33
2018-02-09T13:23:45.264Z,72.47
2018-02-09T13:24:45.144Z,71.71
2018-02-09T13:26:37.896Z,72.09
2018-02-09T13:27:37.788Z,71.80
2018-02-09T13:29:30.571Z,72.09
2018-02-09T13:30:30.440Z,71.90
2018-02-09T13:32:23.188Z,71.80
2018-02-09T13:33:23.086Z,71.71
2018-02-09T13:35:15.945Z,71.99
2018-02-09T13:36:15.830Z,71.23
2018-02-09T13:38:08.588Z,71.42
2018-02-09T13:39:08.483Z,71.71
2018-02-09T13:41:01.251Z,71.33
2018-02-09T13:42:01.129Z,71.52
2018-02-09T13:43:54.080Z,71.42
2018-02-09T13:44:53.993Z,70.86
2018-02-09T13:46:46.776Z,70.76
2018-02-09T13:47:46.628Z,71.52
2018-02-09T13:49:39.382Z,72.09
2018-02-09T13:50:39.275Z,71.71
2018-02-09T13:52:32.542Z,72.28
2018-02-09T13:53:32.433Z,72.18
2018-02-09T13:55:25.188Z,71.52
2018-02-09T13:56:25.098Z,70.86
2018-02-09T13:58:17.850Z,71.61
2018-02-09T13:59:17.726Z,71.04
2018-02-09T14:01:10.501Z,71.23
2018-02-09T14:02:10.546Z,71.42
2018-02-09T14:04:03.412Z,71.52
2018-02-09T14:05:03.618Z,72.28
2018-02-09T14:06:55.884Z,73.22
2018-02-09T14:07:55.766Z,73.50
2018-02-09T14:09:48.545Z,72.05
2018-02-09T14:10:48.434Z,72.28
2018-02-09T14:12:41.292Z,72.28
2018-02-09T14:13:41.170Z,72.28
2018-02-09T14:15:33.982Z,72.71
2018-02-09T14:16:33.816Z,72.71
2018-02-09T14:18:26.657Z,72.71
2018-02-09T14:19:26.563Z,72.85
2018-02-09T14:21:19.610Z,72.71
2018-02-09T14:22:19.210Z,72.47
2018-02-09T14:24:11.992Z,73.32
2018-02-09T14:25:11.881Z,72.56
2018-02-09T14:27:04.618Z,72.85
2018-02-09T14:28:04.502Z,72.80
2018-02-09T14:29:57.260Z,73.88
2018-02-09T14:30:57.149Z,73.50
2018-02-09T14:32:49.923Z,73.69
2018-02-09T14:33:49.792Z,73.88
2018-02-09T14:35:42.553Z,72.71
2018-02-09T14:36:42.444Z,72.52
2018-02-09T14:38:35.208Z,72.66
2018-02-09T14:39:35.097Z,73.66
2018-02-09T14:41:27.835Z,73.66
2018-02-09T14:42:27.741Z,73.75
2018-02-09T14:44:20.597Z,73.66
2018-02-09T14:45:20.492Z,74.36
2018-02-09T14:47:13.263Z,74.93
2018-02-09T14:48:13.144Z,74.04
2018-02-09T14:50:05.903Z,74.32
2018-02-09T14:51:05.781Z,73.66
2018-02-09T14:52:58.629Z,74.79
2018-02-09T14:53:58.534Z,74.88
2018-02-09T14:55:51.299Z,74.60
2018-02-09T14:56:51.193Z,74.88
2018-02-09T14:58:44.031Z,74.98
2018-02-09T14:59:43.932Z,73.85
2018-02-09T15:01:36.800Z,75.07
2018-02-09T15:02:36.674Z,75.07
2018-02-09T15:04:30.519Z,74.60
2018-02-09T15:05:29.396Z,74.60
2018-02-09T15:07:22.603Z,74.79
2018-02-09T15:08:22.505Z,74.79
2018-02-09T15:10:15.353Z,75.36
2018-02-09T15:11:15.233Z,75.07
2018-02-09T15:13:07.999Z,75.36
2018-02-09T15:14:07.886Z,75.36
2018-02-09T15:16:00.742Z,75.96
2018-02-09T15:17:00.626Z,75.93
2018-02-09T15:18:53.414Z,75.26
2018-02-09T15:19:53.301Z,74.98
2018-02-09T15:21:46.136Z,75.26
2018-02-09T15:22:46.042Z,75.17
2018-02-09T15:24:38.802Z,75.26
2018-02-09T15:25:38.679Z,75.07
2018-02-09T15:27:31.523Z,75.36
2018-02-09T15:28:31.422Z,75.45
2018-02-09T15:30:24.204Z,75.64
2018-02-09T15:31:24.089Z,75.55
2018-02-09T15:33:16.927Z,76.02
2018-02-09T15:34:16.828Z,75.93
2018-02-09T15:36:09.698Z,75.93
2018-02-09T15:37:09.573Z,75.83
2018-02-09T15:39:02.433Z,74.98
2018-02-09T15:40:02.320Z,75.07
2018-02-09T15:41:55.099Z,75.45
2018-02-09T15:42:54.968Z,75.64
2018-02-09T15:44:47.813Z,75.83
2018-02-09T15:45:47.721Z,76.12
2018-02-09T15:47:40.493Z,76.12
2018-02-09T15:48:40.357Z,76.31
2018-02-09T15:50:33.211Z,76.21
2018-02-09T15:51:33.161Z,76.12
2018-02-09T15:53:25.938Z,75.83
2018-02-09T15:54:25.774Z,76.50
2018-02-09T15:56:18.614Z,76.68
2018-02-09T15:57:18.510Z,77.34
2018-02-09T15:59:11.282Z,76.40
2018-02-09T16:00:11.158Z,76.12
2018-02-09T16:02:04.028Z,76.78
2018-02-09T16:03:03.920Z,76.31
2018-02-09T16:04:56.669Z,75.74
2018-02-09T16:05:56.570Z,75.26
2018-02-09T16:07:49.409Z,75.83
2018-02-09T16:08:49.341Z,76.02
2018-02-09T16:10:42.915Z,76.02
2018-02-09T16:11:42.771Z,76.12
2018-02-09T16:13:35.612Z,76.40
2018-02-09T16:14:35.581Z,76.50
2018-02-09T16:16:28.377Z,75.74
2018-02-09T16:17:28.271Z,75.93
2018-02-09T16:19:21.142Z,76.40
2018-02-09T16:20:21.016Z,76.12
2018-02-09T16:22:13.877Z,76.31
2018-02-09T16:23:13.763Z,76.40
2018-02-09T16:25:06.622Z,76.02
2018-02-09T16:26:06.523Z,75.74
2018-02-09T16:27:59.427Z,76.50
2018-02-09T16:28:59.309Z,75.74
2018-02-09T16:30:52.222Z,76.12
2018-02-09T16:31:52.131Z,76.78
2018-02-09T16:33:45.301Z,76.59
2018-02-09T16:34:44.861Z,76.68
2018-02-09T16:36:37.709Z,76.59
2018-02-09T16:37:37.616Z,77.06
2018-02-09T16:39:30.482Z,76.50
2018-02-09T16:40:30.375Z,76.59
2018-02-09T16:42:23.224Z,76.02
2018-02-09T16:43:23.105Z,76.40
2018-02-09T16:45:15.977Z,75.93
2018-02-09T16:46:15.864Z,76.31
2018-02-09T16:48:08.717Z,76.50
2018-02-09T16:49:08.623Z,76.97
2018-02-09T16:51:01.476Z,77.15
2018-02-09T16:52:01.378Z,77.63
2018-02-09T16:53:54.321Z,76.87
2018-02-09T16:54:54.218Z,77.06
2018-02-09T16:56:47.072Z,76.87
2018-02-09T16:57:46.970Z,76.78
2018-02-09T16:59:40.126Z,76.78
2018-02-09T17:00:40.031Z,77.82
2018-02-09T17:02:32.905Z,77.44
2018-02-09T17:03:32.778Z,77.72
2018-02-09T17:05:26.067Z,78.39
2018-02-09T17:06:25.984Z,78.10
2018-02-09T17:08:18.805Z,77.72
2018-02-09T17:09:18.723Z,77.63
2018-02-09T17:11:11.554Z,78.39
2018-02-09T17:12:11.450Z,78.39
2018-02-09T17:14:04.297Z,78.39
2018-02-09T17:15:04.228Z,78.58
2018-02-09T17:16:57.028Z,79.43
2018-02-09T17:17:56.934Z,79.61
2018-02-09T17:19:49.825Z,78.91
2018-02-09T17:20:49.698Z,78.72
2018-02-09T17:22:42.542Z,79.05
2018-02-09T17:23:42.428Z,79.14
2018-02-09T17:25:35.320Z,78.76
2018-02-09T17:26:35.177Z,78.76
2018-02-09T17:28:28.019Z,78.86
2018-02-09T17:29:27.929Z,79.14
2018-02-09T17:31:20.804Z,79.14
2018-02-09T17:32:20.686Z,78.86
2018-02-09T17:34:13.524Z,79.80
2018-02-09T17:35:13.431Z,79.43
2018-02-09T17:37:06.302Z,79.61
2018-02-09T17:38:06.179Z,79.14
2018-02-09T17:39:59.045Z,79.33
2018-02-09T17:40:58.929Z,78.86
2018-02-09T17:42:51.802Z,79.05
2018-02-09T17:43:51.667Z,79.71
2018-02-09T17:45:44.523Z,80.27
2018-02-09T17:46:44.421Z,80.18
2018-02-09T17:48:37.599Z,80.65
2018-02-09T17:49:37.479Z,81.22
2018-02-09T17:51:30.361Z,81.22
2018-02-09T17:52:30.227Z,80.75
2018-02-09T17:54:23.120Z,80.75
2018-02-09T17:55:22.973Z,80.84
2018-02-09T17:57:15.860Z,80.94
2018-02-09T17:58:15.726Z,80.84
2018-02-09T18:00:08.589Z,81.22
2018-02-09T18:01:08.471Z,80.84
2018-02-09T18:03:01.330Z,81.13
2018-02-09T18:04:01.232Z,81.41
2018-02-09T18:05:54.314Z,81.79
2018-02-09T18:06:54.185Z,81.79
2018-02-09T18:08:47.576Z,81.22
2018-02-09T18:09:46.931Z,81.41
2018-02-09T18:11:40.442Z,81.32
2018-02-09T18:12:40.296Z,81.79
2018-02-09T18:14:33.160Z,81.22
2018-02-09T18:15:33.039Z,81.22
2018-02-09T18:17:26.016Z,81.60
2018-02-09T18:18:25.957Z,81.60
2018-02-09T18:20:18.842Z,81.79
2018-02-09T18:21:18.646Z,82.07
2018-02-09T18:23:12.458Z,81.79
2018-02-09T18:24:12.326Z,82.17
2018-02-09T18:26:16.752Z,82.35
2018-02-09T18:27:16.730Z,82.07
2018-02-09T18:29:09.515Z,82.26
2018-02-09T18:30:09.393Z,81.88
2018-02-09T18:32:07.462Z,81.79